sensor_id;sensor_type;location;lat;lon;timestamp;pressure;altitude;pressure_sealevel;temperature;humidity
65013;BME280;51715;39.432;-77.518;2023-05-10T00:00:31;99539.38;;;20.57;32.79
65013;BME280;51715;39.432;-77.518;2023-05-10T00:02:59;99546.52;;;20.72;33.19
65013;BME280;51715;39.432;-77.518;2023-05-10T00:05:28;99555.82;;;20.39;33.48
65013;BME280;51715;39.432;-77.518;2023-05-10T00:07:57;99561.47;;;20.59;33.71
65013;BME280;51715;39.432;-77.518;2023-05-10T00:10:24;99570.11;;;20.49;33.83
65013;BME280;51715;39.432;-77.518;2023-05-10T00:12:53;99575.87;;;20.28;34.53
65013;BME280;51715;39.432;-77.518;2023-05-10T00:15:21;99579.34;;;20.18;34.80
65013;BME280;51715;39.432;-77.518;2023-05-10T00:17:49;99586.19;;;20.13;34.63
65013;BME280;51715;39.432;-77.518;2023-05-10T00:20:17;99589.51;;;19.97;34.46
65013;BME280;51715;39.432;-77.518;2023-05-10T00:22:46;99593.85;;;19.79;34.90
65013;BME280;51715;39.432;-77.518;2023-05-10T00:25:14;99602.30;;;19.97;35.24
65013;BME280;51715;39.432;-77.518;2023-05-10T00:27:42;99603.26;;;19.61;36.01
65013;BME280;51715;39.432;-77.518;2023-05-10T00:30:10;99607.55;;;19.39;36.05
65013;BME280;51715;39.432;-77.518;2023-05-10T00:32:38;99617.43;;;19.55;36.17
65013;BME280;51715;39.432;-77.518;2023-05-10T00:35:08;99621.67;;;19.17;36.51
65013;BME280;51715;39.432;-77.518;2023-05-10T00:37:36;99627.87;;;18.97;37.01
65013;BME280;51715;39.432;-77.518;2023-05-10T00:40:06;99633.79;;;19.31;37.35
65013;BME280;51715;39.432;-77.518;2023-05-10T00:42:35;99640.10;;;19.08;37.74
65013;BME280;51715;39.432;-77.518;2023-05-10T00:45:05;99644.15;;;18.63;38.43
65013;BME280;51715;39.432;-77.518;2023-05-10T00:47:33;99650.93;;;18.53;38.44
65013;BME280;51715;39.432;-77.518;2023-05-10T00:50:03;99657.27;;;18.65;38.51
65013;BME280;51715;39.432;-77.518;2023-05-10T00:52:32;99660.20;;;18.57;38.89
65013;BME280;51715;39.432;-77.518;2023-05-10T00:55:00;99662.06;;;18.52;38.90
65013;BME280;51715;39.432;-77.518;2023-05-10T00:57:29;99668.29;;;18.19;38.81
65013;BME280;51715;39.432;-77.518;2023-05-10T00:59:58;99669.39;;;18.32;38.69
65013;BME280;51715;39.432;-77.518;2023-05-10T01:02:28;99672.87;;;18.22;38.84
65013;BME280;51715;39.432;-77.518;2023-05-10T01:04:56;99672.87;;;18.01;39.49
65013;BME280;51715;39.432;-77.518;2023-05-10T01:07:24;99678.39;;;17.96;39.38
65013;BME280;51715;39.432;-77.518;2023-05-10T01:09:52;99683.85;;;18.12;39.34
65013;BME280;51715;39.432;-77.518;2023-05-10T01:12:20;99689.83;;;18.01;39.77
65013;BME280;51715;39.432;-77.518;2023-05-10T01:14:49;99693.97;;;17.67;39.65
65013;BME280;51715;39.432;-77.518;2023-05-10T01:17:17;99693.53;;;17.85;39.74
65013;BME280;51715;39.432;-77.518;2023-05-10T01:19:46;99694.53;;;18.04;39.71
65013;BME280;51715;39.432;-77.518;2023-05-10T01:22:33;99696.63;;;17.77;39.50
65013;BME280;51715;39.432;-77.518;2023-05-10T01:25:23;99702.47;;;18.00;39.47
65013;BME280;51715;39.432;-77.518;2023-05-10T01:28:16;99708.03;;;17.38;39.94
65013;BME280;51715;39.432;-77.518;2023-05-10T01:31:05;99716.28;;;17.31;40.49
65013;BME280;51715;39.432;-77.518;2023-05-10T01:33:39;99719.57;;;17.53;40.38
65013;BME280;51715;39.432;-77.518;2023-05-10T01:36:15;99719.70;;;17.48;40.42
65013;BME280;51715;39.432;-77.518;2023-05-10T01:38:50;99719.77;;;17.04;40.34
65013;BME280;51715;39.432;-77.518;2023-05-10T01:41:23;99722.76;;;17.24;40.41
65013;BME280;51715;39.432;-77.518;2023-05-10T01:43:59;99726.08;;;17.40;40.34
65013;BME280;51715;39.432;-77.518;2023-05-10T01:46:33;99731.41;;;17.04;40.78
65013;BME280;51715;39.432;-77.518;2023-05-10T01:49:06;99738.49;;;17.03;40.71
65013;BME280;51715;39.432;-77.518;2023-05-10T01:51:41;99743.16;;;16.92;40.64
65013;BME280;51715;39.432;-77.518;2023-05-10T01:54:13;99748.46;;;16.86;40.85
65013;BME280;51715;39.432;-77.518;2023-05-10T01:56:43;99749.82;;;16.80;40.98
65013;BME280;51715;39.432;-77.518;2023-05-10T01:59:17;99751.92;;;16.78;41.09
65013;BME280;51715;39.432;-77.518;2023-05-10T02:01:46;99753.05;;;16.89;41.43
65013;BME280;51715;39.432;-77.518;2023-05-10T02:04:17;99750.76;;;16.61;41.49
65013;BME280;51715;39.432;-77.518;2023-05-10T02:06:48;99751.55;;;16.77;41.57
65013;BME280;51715;39.432;-77.518;2023-05-10T02:09:18;99752.99;;;16.41;41.70
65013;BME280;51715;39.432;-77.518;2023-05-10T02:11:48;99757.17;;;16.53;41.92
65013;BME280;51715;39.432;-77.518;2023-05-10T02:14:18;99752.19;;;16.61;42.20
65013;BME280;51715;39.432;-77.518;2023-05-10T02:16:48;99749.85;;;16.42;42.07
65013;BME280;51715;39.432;-77.518;2023-05-10T02:19:21;99750.47;;;16.17;41.81
65013;BME280;51715;39.432;-77.518;2023-05-10T02:21:51;99751.31;;;16.34;42.08
65013;BME280;51715;39.432;-77.518;2023-05-10T02:24:21;99753.32;;;16.31;42.17
65013;BME280;51715;39.432;-77.518;2023-05-10T02:26:51;99756.75;;;16.09;42.06
65013;BME280;51715;39.432;-77.518;2023-05-10T02:29:23;99759.10;;;16.40;41.70
65013;BME280;51715;39.432;-77.518;2023-05-10T02:31:54;99759.97;;;16.41;41.32
65013;BME280;51715;39.432;-77.518;2023-05-10T02:34:23;99764.15;;;16.16;41.34
65013;BME280;51715;39.432;-77.518;2023-05-10T02:36:53;99767.02;;;16.67;41.36
65013;BME280;51715;39.432;-77.518;2023-05-10T02:39:23;99766.97;;;16.52;41.82
65013;BME280;51715;39.432;-77.518;2023-05-10T02:41:53;99771.12;;;16.51;41.56
65013;BME280;51715;39.432;-77.518;2023-05-10T02:44:23;99771.55;;;16.45;41.62
65013;BME280;51715;39.432;-77.518;2023-05-10T02:46:54;99775.79;;;16.13;41.93
65013;BME280;51715;39.432;-77.518;2023-05-10T02:49:22;99780.20;;;16.39;42.01
65013;BME280;51715;39.432;-77.518;2023-05-10T02:51:54;99782.55;;;16.26;42.25
65013;BME280;51715;39.432;-77.518;2023-05-10T02:54:29;99789.81;;;15.99;42.43
65013;BME280;51715;39.432;-77.518;2023-05-10T02:57:00;99812.26;;;15.77;42.65
65013;BME280;51715;39.432;-77.518;2023-05-10T02:59:31;99815.60;;;15.42;44.33
65013;BME280;51715;39.432;-77.518;2023-05-10T03:02:00;99816.52;;;15.29;45.03
65013;BME280;51715;39.432;-77.518;2023-05-10T03:04:28;99817.08;;;14.62;45.15
65013;BME280;51715;39.432;-77.518;2023-05-10T03:06:56;99818.24;;;15.09;45.02
65013;BME280;51715;39.432;-77.518;2023-05-10T03:09:25;99819.58;;;14.87;45.12
65013;BME280;51715;39.432;-77.518;2023-05-10T03:12:00;99821.42;;;15.53;44.00
65013;BME280;51715;39.432;-77.518;2023-05-10T03:14:48;99821.14;;;15.45;43.59
65013;BME280;51715;39.432;-77.518;2023-05-10T03:17:23;99818.21;;;15.57;43.41
65013;BME280;51715;39.432;-77.518;2023-05-10T03:19:56;99824.02;;;15.75;42.79
65013;BME280;51715;39.432;-77.518;2023-05-10T03:22:27;99825.95;;;15.88;42.46
65013;BME280;51715;39.432;-77.518;2023-05-10T03:25:15;99829.22;;;15.71;42.86
65013;BME280;51715;39.432;-77.518;2023-05-10T03:27:44;99830.69;;;15.62;43.04
65013;BME280;51715;39.432;-77.518;2023-05-10T03:30:14;99835.06;;;15.84;42.66
65013;BME280;51715;39.432;-77.518;2023-05-10T03:32:42;99836.12;;;16.00;42.03
65013;BME280;51715;39.432;-77.518;2023-05-10T03:35:12;99840.77;;;16.04;41.67
65013;BME280;51715;39.432;-77.518;2023-05-10T03:37:40;99849.85;;;15.63;41.38
65013;BME280;51715;39.432;-77.518;2023-05-10T03:40:10;99858.42;;;15.82;41.74
65013;BME280;51715;39.432;-77.518;2023-05-10T03:42:38;99858.99;;;15.82;42.13
65013;BME280;51715;39.432;-77.518;2023-05-10T03:45:10;99864.53;;;15.97;41.76
65013;BME280;51715;39.432;-77.518;2023-05-10T03:47:38;99863.02;;;15.97;41.58
65013;BME280;51715;39.432;-77.518;2023-05-10T03:50:07;99866.00;;;15.74;41.86
65013;BME280;51715;39.432;-77.518;2023-05-10T03:52:35;99873.15;;;15.83;42.10
65013;BME280;51715;39.432;-77.518;2023-05-10T03:55:03;99873.18;;;15.67;41.90
65013;BME280;51715;39.432;-77.518;2023-05-10T03:57:31;99867.55;;;16.02;41.70
65013;BME280;51715;39.432;-77.518;2023-05-10T04:00:00;99875.12;;;16.17;41.55
65013;BME280;51715;39.432;-77.518;2023-05-10T04:04:00;99885.40;;;15.46;41.67
65013;BME280;51715;39.432;-77.518;2023-05-10T04:06:28;99883.97;;;15.37;42.02
65013;BME280;51715;39.432;-77.518;2023-05-10T04:08:57;99892.84;;;15.36;42.20
65013;BME280;51715;39.432;-77.518;2023-05-10T04:11:25;99893.04;;;15.06;42.81
65013;BME280;51715;39.432;-77.518;2023-05-10T04:13:54;99899.18;;;15.17;42.53
65013;BME280;51715;39.432;-77.518;2023-05-10T04:16:22;99905.63;;;15.32;42.97
65013;BME280;51715;39.432;-77.518;2023-05-10T04:18:50;99905.95;;;15.16;42.92
65013;BME280;51715;39.432;-77.518;2023-05-10T04:21:18;99902.00;;;14.88;42.95
65013;BME280;51715;39.432;-77.518;2023-05-10T04:23:46;99904.07;;;15.16;42.68
65013;BME280;51715;39.432;-77.518;2023-05-10T04:26:14;99907.89;;;15.30;42.76
65013;BME280;51715;39.432;-77.518;2023-05-10T04:28:42;99910.78;;;15.14;43.06
65013;BME280;51715;39.432;-77.518;2023-05-10T04:31:11;99909.21;;;14.97;43.33
65013;BME280;51715;39.432;-77.518;2023-05-10T04:33:39;99917.36;;;14.89;43.31
65013;BME280;51715;39.432;-77.518;2023-05-10T04:36:08;99924.82;;;14.42;44.09
65013;BME280;51715;39.432;-77.518;2023-05-10T04:38:36;99918.53;;;14.11;44.46
65013;BME280;51715;39.432;-77.518;2023-05-10T04:41:05;99910.80;;;14.40;44.38
65013;BME280;51715;39.432;-77.518;2023-05-10T04:43:34;99923.63;;;13.93;44.93
65013;BME280;51715;39.432;-77.518;2023-05-10T04:46:03;99930.01;;;14.13;44.93
65013;BME280;51715;39.432;-77.518;2023-05-10T04:48:32;99930.12;;;13.63;45.27
65013;BME280;51715;39.432;-77.518;2023-05-10T04:51:06;99931.16;;;13.82;45.08
65013;BME280;51715;39.432;-77.518;2023-05-10T04:53:34;99933.02;;;14.21;44.11
65013;BME280;51715;39.432;-77.518;2023-05-10T04:56:03;99937.49;;;14.39;43.47
65013;BME280;51715;39.432;-77.518;2023-05-10T04:58:31;99943.68;;;13.81;43.95
65013;BME280;51715;39.432;-77.518;2023-05-10T05:01:05;99938.12;;;13.83;43.72
65013;BME280;51715;39.432;-77.518;2023-05-10T05:03:33;99938.63;;;14.26;43.33
65013;BME280;51715;39.432;-77.518;2023-05-10T05:06:02;99942.75;;;14.24;43.43
65013;BME280;51715;39.432;-77.518;2023-05-10T05:08:30;99948.11;;;13.97;43.20
65013;BME280;51715;39.432;-77.518;2023-05-10T05:10:58;99945.59;;;14.10;43.12
65013;BME280;51715;39.432;-77.518;2023-05-10T05:13:31;99943.49;;;14.12;42.57
65013;BME280;51715;39.432;-77.518;2023-05-10T05:16:01;99942.18;;;14.12;42.10
65013;BME280;51715;39.432;-77.518;2023-05-10T05:18:29;99945.97;;;14.22;42.21
65013;BME280;51715;39.432;-77.518;2023-05-10T05:20:58;99946.31;;;14.18;41.22
65013;BME280;51715;39.432;-77.518;2023-05-10T05:23:27;99944.88;;;14.24;41.17
65013;BME280;51715;39.432;-77.518;2023-05-10T05:25:55;99941.73;;;14.27;39.91
65013;BME280;51715;39.432;-77.518;2023-05-10T05:28:24;99943.79;;;14.38;39.90
65013;BME280;51715;39.432;-77.518;2023-05-10T05:30:52;99953.06;;;14.41;41.04
65013;BME280;51715;39.432;-77.518;2023-05-10T05:33:20;99953.78;;;14.44;39.91
65013;BME280;51715;39.432;-77.518;2023-05-10T05:35:48;99952.75;;;14.13;36.46
65013;BME280;51715;39.432;-77.518;2023-05-10T05:38:16;99955.19;;;14.24;37.55
65013;BME280;51715;39.432;-77.518;2023-05-10T05:40:45;99963.72;;;14.69;38.97
65013;BME280;51715;39.432;-77.518;2023-05-10T05:43:12;99966.40;;;14.86;37.92
65013;BME280;51715;39.432;-77.518;2023-05-10T05:45:40;99959.39;;;14.90;36.17
65013;BME280;51715;39.432;-77.518;2023-05-10T05:48:08;99960.66;;;14.76;37.25
65013;BME280;51715;39.432;-77.518;2023-05-10T05:50:36;99963.23;;;14.89;36.84
65013;BME280;51715;39.432;-77.518;2023-05-10T05:53:05;99960.88;;;15.05;33.60
65013;BME280;51715;39.432;-77.518;2023-05-10T05:55:33;99963.35;;;14.83;35.05
65013;BME280;51715;39.432;-77.518;2023-05-10T05:58:00;99964.05;;;14.56;33.43
65013;BME280;51715;39.432;-77.518;2023-05-10T06:00:29;99963.60;;;14.79;35.95
65013;BME280;51715;39.432;-77.518;2023-05-10T06:02:57;99962.00;;;15.21;36.71
65013;BME280;51715;39.432;-77.518;2023-05-10T06:05:26;99956.40;;;14.71;34.78
65013;BME280;51715;39.432;-77.518;2023-05-10T06:07:53;99948.43;;;15.32;34.06
65013;BME280;51715;39.432;-77.518;2023-05-10T06:10:23;99950.63;;;14.81;34.77
65013;BME280;51715;39.432;-77.518;2023-05-10T06:12:50;99954.39;;;15.00;35.08
65013;BME280;51715;39.432;-77.518;2023-05-10T06:15:19;99952.92;;;15.01;34.99
65013;BME280;51715;39.432;-77.518;2023-05-10T06:17:48;99948.51;;;14.75;33.62
65013;BME280;51715;39.432;-77.518;2023-05-10T06:20:16;99942.84;;;15.05;33.11
65013;BME280;51715;39.432;-77.518;2023-05-10T06:22:45;99943.62;;;14.69;31.31
65013;BME280;51715;39.432;-77.518;2023-05-10T06:25:14;99944.97;;;14.64;30.92
65013;BME280;51715;39.432;-77.518;2023-05-10T06:27:43;99945.74;;;14.70;32.22
65013;BME280;51715;39.432;-77.518;2023-05-10T06:30:11;99947.07;;;14.83;31.13
65013;BME280;51715;39.432;-77.518;2023-05-10T06:32:39;99954.35;;;14.69;32.46
65013;BME280;51715;39.432;-77.518;2023-05-10T06:35:07;99956.50;;;14.89;32.50
65013;BME280;51715;39.432;-77.518;2023-05-10T06:37:36;99959.92;;;14.92;31.04
65013;BME280;51715;39.432;-77.518;2023-05-10T06:40:15;99959.87;;;15.18;32.08
65013;BME280;51715;39.432;-77.518;2023-05-10T06:42:43;99962.00;;;15.07;31.93
65013;BME280;51715;39.432;-77.518;2023-05-10T06:45:11;99962.59;;;14.57;31.05
65013;BME280;51715;39.432;-77.518;2023-05-10T06:47:39;99959.13;;;14.77;31.16
65013;BME280;51715;39.432;-77.518;2023-05-10T06:50:08;99956.81;;;14.81;31.69
65013;BME280;51715;39.432;-77.518;2023-05-10T06:52:36;99954.82;;;14.91;34.03
65013;BME280;51715;39.432;-77.518;2023-05-10T06:55:05;99960.73;;;14.19;35.48
65013;BME280;51715;39.432;-77.518;2023-05-10T06:57:33;99950.90;;;13.92;29.61
65013;BME280;51715;39.432;-77.518;2023-05-10T07:00:07;99950.22;;;14.12;33.49
65013;BME280;51715;39.432;-77.518;2023-05-10T07:02:35;99948.76;;;13.46;34.60
65013;BME280;51715;39.432;-77.518;2023-05-10T07:05:05;99956.18;;;14.16;34.10
65013;BME280;51715;39.432;-77.518;2023-05-10T07:07:32;99956.96;;;14.32;32.36
65013;BME280;51715;39.432;-77.518;2023-05-10T07:10:00;99961.90;;;13.94;32.52
65013;BME280;51715;39.432;-77.518;2023-05-10T07:12:28;99967.35;;;14.14;30.41
65013;BME280;51715;39.432;-77.518;2023-05-10T07:14:56;99970.00;;;14.69;32.25
65013;BME280;51715;39.432;-77.518;2023-05-10T07:17:23;99972.41;;;14.69;30.25
65013;BME280;51715;39.432;-77.518;2023-05-10T07:19:51;99974.98;;;14.89;30.64
65013;BME280;51715;39.432;-77.518;2023-05-10T07:22:20;99977.73;;;15.07;31.08
65013;BME280;51715;39.432;-77.518;2023-05-10T07:24:48;99972.16;;;15.27;31.25
65013;BME280;51715;39.432;-77.518;2023-05-10T07:27:17;99974.57;;;14.87;29.40
65013;BME280;51715;39.432;-77.518;2023-05-10T07:29:46;99972.23;;;15.09;28.84
65013;BME280;51715;39.432;-77.518;2023-05-10T07:32:14;99972.00;;;14.98;32.21
65013;BME280;51715;39.432;-77.518;2023-05-10T07:34:43;99970.12;;;15.34;30.94
65013;BME280;51715;39.432;-77.518;2023-05-10T07:37:10;99976.04;;;15.01;33.60
65013;BME280;51715;39.432;-77.518;2023-05-10T07:39:38;99975.13;;;14.53;33.25
65013;BME280;51715;39.432;-77.518;2023-05-10T07:42:06;99974.11;;;14.39;33.79
65013;BME280;51715;39.432;-77.518;2023-05-10T07:44:34;99971.85;;;14.37;32.78
65013;BME280;51715;39.432;-77.518;2023-05-10T07:47:02;99970.97;;;14.39;32.34
65013;BME280;51715;39.432;-77.518;2023-05-10T07:49:29;99977.08;;;14.02;34.08
65013;BME280;51715;39.432;-77.518;2023-05-10T07:51:57;99973.27;;;14.13;31.85
65013;BME280;51715;39.432;-77.518;2023-05-10T07:54:25;99978.56;;;14.31;33.28
65013;BME280;51715;39.432;-77.518;2023-05-10T07:56:53;99982.51;;;13.91;33.04
65013;BME280;51715;39.432;-77.518;2023-05-10T07:59:21;99985.20;;;14.14;34.45
65013;BME280;51715;39.432;-77.518;2023-05-10T08:01:49;99987.11;;;14.08;33.10
65013;BME280;51715;39.432;-77.518;2023-05-10T08:04:17;99986.01;;;13.83;34.68
65013;BME280;51715;39.432;-77.518;2023-05-10T08:06:45;99992.84;;;14.02;33.58
65013;BME280;51715;39.432;-77.518;2023-05-10T08:09:13;100004.19;;;13.60;34.87
65013;BME280;51715;39.432;-77.518;2023-05-10T08:11:41;100004.52;;;13.67;34.04
65013;BME280;51715;39.432;-77.518;2023-05-10T08:14:09;100014.91;;;13.81;33.80
65013;BME280;51715;39.432;-77.518;2023-05-10T08:16:38;100008.41;;;13.76;34.35
65013;BME280;51715;39.432;-77.518;2023-05-10T08:19:05;100008.24;;;13.69;35.57
65013;BME280;51715;39.432;-77.518;2023-05-10T08:21:34;100010.24;;;12.67;32.24
65013;BME280;51715;39.432;-77.518;2023-05-10T08:24:02;100014.26;;;12.89;35.42
65013;BME280;51715;39.432;-77.518;2023-05-10T08:26:30;100021.68;;;13.40;35.46
65013;BME280;51715;39.432;-77.518;2023-05-10T08:28:58;100024.50;;;13.57;34.84
65013;BME280;51715;39.432;-77.518;2023-05-10T08:31:26;100021.75;;;12.92;35.69
65013;BME280;51715;39.432;-77.518;2023-05-10T08:33:54;100015.81;;;12.49;34.85
65013;BME280;51715;39.432;-77.518;2023-05-10T08:36:26;100018.30;;;13.24;33.14
65013;BME280;51715;39.432;-77.518;2023-05-10T08:38:56;100019.32;;;13.11;32.96
65013;BME280;51715;39.432;-77.518;2023-05-10T08:41:24;100022.90;;;13.31;34.48
65013;BME280;51715;39.432;-77.518;2023-05-10T08:43:53;100022.82;;;13.89;33.66
65013;BME280;51715;39.432;-77.518;2023-05-10T08:46:22;100020.43;;;13.92;33.24
65013;BME280;51715;39.432;-77.518;2023-05-10T08:48:51;100018.41;;;13.86;33.53
65013;BME280;51715;39.432;-77.518;2023-05-10T08:51:24;100020.89;;;14.02;32.78
65013;BME280;51715;39.432;-77.518;2023-05-10T08:53:54;100024.79;;;14.20;33.23
65013;BME280;51715;39.432;-77.518;2023-05-10T08:56:23;100030.83;;;14.00;32.44
65013;BME280;51715;39.432;-77.518;2023-05-10T08:58:51;100035.37;;;14.15;31.95
65013;BME280;51715;39.432;-77.518;2023-05-10T09:01:20;100036.83;;;14.16;31.70
65013;BME280;51715;39.432;-77.518;2023-05-10T09:03:49;100039.34;;;14.19;32.08
65013;BME280;51715;39.432;-77.518;2023-05-10T09:06:18;100044.89;;;14.29;31.57
65013;BME280;51715;39.432;-77.518;2023-05-10T09:08:47;100044.22;;;14.25;32.07
65013;BME280;51715;39.432;-77.518;2023-05-10T09:11:15;100049.33;;;14.11;30.97
65013;BME280;51715;39.432;-77.518;2023-05-10T09:13:44;100059.10;;;14.06;34.71
65013;BME280;51715;39.432;-77.518;2023-05-10T09:16:12;100063.33;;;13.77;33.66
65013;BME280;51715;39.432;-77.518;2023-05-10T09:18:41;100068.54;;;13.95;33.86
65013;BME280;51715;39.432;-77.518;2023-05-10T09:21:10;100066.31;;;13.73;34.68
65013;BME280;51715;39.432;-77.518;2023-05-10T09:23:39;100063.29;;;13.77;34.30
65013;BME280;51715;39.432;-77.518;2023-05-10T09:26:10;100064.75;;;13.49;33.83
65013;BME280;51715;39.432;-77.518;2023-05-10T09:28:51;100068.85;;;13.18;33.31
65013;BME280;51715;39.432;-77.518;2023-05-10T09:31:20;100076.72;;;13.41;34.91
65013;BME280;51715;39.432;-77.518;2023-05-10T09:33:50;100078.75;;;13.07;33.27
65013;BME280;51715;39.432;-77.518;2023-05-10T09:36:18;100081.26;;;12.85;35.99
65013;BME280;51715;39.432;-77.518;2023-05-10T09:38:47;100083.23;;;13.00;35.23
65013;BME280;51715;39.432;-77.518;2023-05-10T09:41:18;100082.78;;;12.60;35.94
65013;BME280;51715;39.432;-77.518;2023-05-10T09:43:46;100089.35;;;12.64;35.61
65013;BME280;51715;39.432;-77.518;2023-05-10T09:46:15;100087.11;;;12.68;35.54
65013;BME280;51715;39.432;-77.518;2023-05-10T09:48:45;100094.11;;;12.69;35.26
65013;BME280;51715;39.432;-77.518;2023-05-10T09:51:19;100097.74;;;12.77;35.92
65013;BME280;51715;39.432;-77.518;2023-05-10T09:53:48;100100.60;;;12.32;35.09
65013;BME280;51715;39.432;-77.518;2023-05-10T09:56:33;100108.12;;;11.41;37.26
65013;BME280;51715;39.432;-77.518;2023-05-10T09:59:04;100115.40;;;12.32;36.55
65013;BME280;51715;39.432;-77.518;2023-05-10T10:01:33;100115.62;;;12.24;36.20
65013;BME280;51715;39.432;-77.518;2023-05-10T10:04:04;100119.38;;;11.55;35.71
65013;BME280;51715;39.432;-77.518;2023-05-10T10:06:37;100117.96;;;11.67;37.35
65013;BME280;51715;39.432;-77.518;2023-05-10T10:09:06;100133.10;;;12.37;36.16
65013;BME280;51715;39.432;-77.518;2023-05-10T10:11:36;100127.26;;;12.27;36.90
65013;BME280;51715;39.432;-77.518;2023-05-10T10:14:04;100127.80;;;11.98;38.21
65013;BME280;51715;39.432;-77.518;2023-05-10T10:16:33;100133.54;;;11.96;37.53
65013;BME280;51715;39.432;-77.518;2023-05-10T10:19:03;100148.14;;;12.36;36.43
65013;BME280;51715;39.432;-77.518;2023-05-10T10:21:31;100158.63;;;12.35;37.47
65013;BME280;51715;39.432;-77.518;2023-05-10T10:24:00;100166.22;;;12.49;36.19
65013;BME280;51715;39.432;-77.518;2023-05-10T10:26:30;100166.21;;;12.24;35.35
65013;BME280;51715;39.432;-77.518;2023-05-10T10:29:04;100177.43;;;12.68;37.68
65013;BME280;51715;39.432;-77.518;2023-05-10T10:31:41;100178.92;;;12.30;36.87
65013;BME280;51715;39.432;-77.518;2023-05-10T10:34:25;100178.69;;;12.54;36.39
65013;BME280;51715;39.432;-77.518;2023-05-10T10:36:55;100182.45;;;12.49;36.50
65013;BME280;51715;39.432;-77.518;2023-05-10T10:39:24;100182.93;;;12.66;36.60
65013;BME280;51715;39.432;-77.518;2023-05-10T10:41:54;100187.07;;;12.99;35.24
65013;BME280;51715;39.432;-77.518;2023-05-10T10:44:33;100187.22;;;12.61;36.54
65013;BME280;51715;39.432;-77.518;2023-05-10T10:47:04;100188.01;;;12.88;36.34
65013;BME280;51715;39.432;-77.518;2023-05-10T10:49:37;100200.19;;;12.63;35.45
65013;BME280;51715;39.432;-77.518;2023-05-10T10:52:38;100207.36;;;13.06;35.95
65013;BME280;51715;39.432;-77.518;2023-05-10T10:55:08;100210.76;;;12.87;36.47
65013;BME280;51715;39.432;-77.518;2023-05-10T10:57:47;100214.92;;;12.79;36.32
65013;BME280;51715;39.432;-77.518;2023-05-10T11:00:28;100209.29;;;13.29;36.43
65013;BME280;51715;39.432;-77.518;2023-05-10T11:02:59;100211.08;;;12.88;36.40
65013;BME280;51715;39.432;-77.518;2023-05-10T11:05:36;100210.76;;;13.03;36.62
65013;BME280;51715;39.432;-77.518;2023-05-10T11:08:10;100212.25;;;12.69;36.85
65013;BME280;51715;39.432;-77.518;2023-05-10T11:10:40;100204.98;;;12.84;36.79
65013;BME280;51715;39.432;-77.518;2023-05-10T11:13:10;100204.50;;;13.02;36.45
65013;BME280;51715;39.432;-77.518;2023-05-10T11:15:39;100202.63;;;13.14;37.15
65013;BME280;51715;39.432;-77.518;2023-05-10T11:18:18;100201.76;;;13.01;36.47
65013;BME280;51715;39.432;-77.518;2023-05-10T11:20:51;100203.45;;;13.56;36.81
65013;BME280;51715;39.432;-77.518;2023-05-10T11:23:21;100213.34;;;13.35;38.10
65013;BME280;51715;39.432;-77.518;2023-05-10T11:25:50;100215.82;;;13.68;37.37
65013;BME280;51715;39.432;-77.518;2023-05-10T11:28:18;100218.35;;;13.61;37.43
65013;BME280;51715;39.432;-77.518;2023-05-10T11:30:47;100217.95;;;13.80;37.08
65013;BME280;51715;39.432;-77.518;2023-05-10T11:33:17;100220.14;;;13.78;37.69
65013;BME280;51715;39.432;-77.518;2023-05-10T11:35:45;100222.75;;;14.20;38.07
65013;BME280;51715;39.432;-77.518;2023-05-10T11:38:14;100223.92;;;13.81;38.58
65013;BME280;51715;39.432;-77.518;2023-05-10T11:40:41;100222.93;;;13.87;38.16
65013;BME280;51715;39.432;-77.518;2023-05-10T11:43:10;100225.97;;;14.11;37.61
65013;BME280;51715;39.432;-77.518;2023-05-10T11:45:39;100229.16;;;14.28;36.64
65013;BME280;51715;39.432;-77.518;2023-05-10T11:48:08;100233.17;;;14.40;37.13
65013;BME280;51715;39.432;-77.518;2023-05-10T11:50:36;100232.58;;;14.68;36.78
65013;BME280;51715;39.432;-77.518;2023-05-10T11:53:04;100242.55;;;14.87;37.06
65013;BME280;51715;39.432;-77.518;2023-05-10T11:55:34;100235.06;;;14.18;37.20
65013;BME280;51715;39.432;-77.518;2023-05-10T11:58:02;100238.64;;;14.62;36.50
65013;BME280;51715;39.432;-77.518;2023-05-10T12:00:32;100237.16;;;15.01;37.34
65013;BME280;51715;39.432;-77.518;2023-05-10T12:03:01;100235.40;;;15.05;36.80
65013;BME280;51715;39.432;-77.518;2023-05-10T12:05:33;100237.55;;;15.50;34.51
65013;BME280;51715;39.432;-77.518;2023-05-10T12:08:22;100242.23;;;15.28;35.58
65013;BME280;51715;39.432;-77.518;2023-05-10T12:10:51;100250.22;;;15.99;35.49
65013;BME280;51715;39.432;-77.518;2023-05-10T12:13:21;100252.41;;;16.18;34.79
65013;BME280;51715;39.432;-77.518;2023-05-10T12:15:48;100248.61;;;16.52;34.52
65013;BME280;51715;39.432;-77.518;2023-05-10T12:18:23;100254.25;;;16.69;34.40
65013;BME280;51715;39.432;-77.518;2023-05-10T12:20:53;100266.28;;;16.61;30.82
65013;BME280;51715;39.432;-77.518;2023-05-10T12:23:22;100270.19;;;16.98;32.10
65013;BME280;51715;39.432;-77.518;2023-05-10T12:25:49;100272.68;;;17.04;32.18
65013;BME280;51715;39.432;-77.518;2023-05-10T12:28:19;100269.39;;;17.36;32.48
65013;BME280;51715;39.432;-77.518;2023-05-10T12:30:48;100271.90;;;17.78;33.42
65013;BME280;51715;39.432;-77.518;2023-05-10T12:33:18;100276.90;;;17.90;32.14
65013;BME280;51715;39.432;-77.518;2023-05-10T12:35:47;100275.05;;;18.23;32.29
65013;BME280;51715;39.432;-77.518;2023-05-10T12:38:34;100280.91;;;18.17;30.74
65013;BME280;51715;39.432;-77.518;2023-05-10T12:41:04;100282.01;;;17.56;29.31
65013;BME280;51715;39.432;-77.518;2023-05-10T12:43:33;100284.10;;;17.93;31.47
65013;BME280;51715;39.432;-77.518;2023-05-10T12:46:06;100284.51;;;17.90;31.66
65013;BME280;51715;39.432;-77.518;2023-05-10T12:48:34;100284.84;;;18.12;30.60
65013;BME280;51715;39.432;-77.518;2023-05-10T12:51:03;100279.99;;;18.29;29.38